Aviation Digital Data Service (ADDS)

Output produced by TAFs form (1015 UTC 26 July 2016)
found at http://www.aviationweather.gov/adds/tafs/
 
KBJC 260956Z AUTO 32006KT 10SM CLR 20/10 A3017 RMK AO2
KBJC 260538Z 2606/2706 19007KT P6SM SCT200 
     FM260800 29008KT P6SM FEW120 SCT200 
     FM261500 34006KT P6SM FEW150 SCT200 
     FM261900 02007KT P6SM FEW090 SCT150 
     FM270100 24010KT P6SM SCT080 BKN140